DW4721 Fema DK current weather conditions

sailwx.info

Wind from 255 at 8 knots gusting 16

Air temperature 11.7° C
Dewpoint 9.1° C

Last reported at 2018-Sep-21 23:45 UTC.
Time now 2018-Sep-22 01:12 UTC

Location: N 54°59' E 011°32'.
View on Google Maps.

See reports from other nearby stations

  
Tides and Currents Weather Stations Pressure Air Temp Water Temp Dewpoint Dewpoint Depression Visibility Wind Speed Wind Dir Waves Ship Positions
date/time (UTC)wind fromknots sea level pressurealtimeterstation pressurevisibilityair tempwater tempwave heightnotes
2018-Sep-21 23:45 255 8 gusting 16 11.7
2018-Sep-21 23:30 269 10 gusting 20 11.7
2018-Sep-21 23:15 246 11 gusting 20 11.7
2018-Sep-21 23:01 265 11 gusting 20 11.7
2018-Sep-21 22:46 249 9 gusting 22 11.7
2018-Sep-21 22:30 255 11 gusting 21 11.1
2018-Sep-21 22:16 247 11 gusting 22 11.7
2018-Sep-21 22:01 250 11 gusting 21 12.2
2018-Sep-21 21:45 255 9 gusting 20 12.2
2018-Sep-21 21:30 247 11 gusting 20 12.2
2018-Sep-21 21:16 246 12 gusting 20 12.2
2018-Sep-21 21:01 242 11 gusting 19 12.2
2018-Sep-21 20:46 250 9 gusting 21 12.2
2018-Sep-21 20:31 250 9 gusting 20 12.2
2018-Sep-21 20:01 255 15 gusting 24 12.8
2018-Sep-21 19:45 251 10 gusting 21 12.8
2018-Sep-21 19:30 255 9 gusting 19 12.8
2018-Sep-21 19:16 265 10 gusting 23 12.8
2018-Sep-21 19:00 265 12 gusting 24 12.8
2018-Sep-21 18:46 260 13 gusting 23 12.8
2018-Sep-21 18:31 265 10 gusting 19 12.2
2018-Sep-21 18:15 286 13 gusting 22 11.7
2018-Sep-21 18:00 274 9 gusting 17 12.8
2018-Sep-21 17:45 265 10 gusting 19 12.8
2018-Sep-21 17:30 260 11 gusting 19 12.8
2018-Sep-21 17:15 251 12 gusting 19 13.3
2018-Sep-21 17:01 265 11 gusting 19 13.3
2018-Sep-21 16:45 255 13 gusting 22 13.3
2018-Sep-21 16:30 260 8 gusting 19 13.3
2018-Sep-21 16:15 273 13 gusting 27 13.3
2018-Sep-21 16:00 250 14 gusting 24 13.9
2018-Sep-21 15:45 255 9 gusting 20 14.4
2018-Sep-21 15:30 255 10 gusting 17 14.4
2018-Sep-21 15:15 260 10 gusting 18 14.4
2018-Sep-21 15:00 271 7 gusting 23 15.0
2018-Sep-21 14:45 282 13 gusting 21 15.0
2018-Sep-21 14:30 255 11 gusting 19 15.0
2018-Sep-21 14:15 265 13 gusting 24 15.0
2018-Sep-21 14:01 273 7 gusting 19 15.0
2018-Sep-21 13:47 260 9 gusting 19 15.0
2018-Sep-21 13:31 255 9 gusting 17 15.0
2018-Sep-21 13:16 265 12 gusting 20 14.4
2018-Sep-21 13:01 265 8 gusting 17 15.0
2018-Sep-21 12:46 269 9 gusting 16 15.0
2018-Sep-21 12:31 272 9 gusting 19 15.0
2018-Sep-21 12:16 260 12 gusting 22 15.0
2018-Sep-21 12:00 255 13 gusting 21 15.6
2018-Sep-21 11:45 265 19 gusting 30 16.7
2018-Sep-21 11:30 242 13 gusting 30 18.9
2018-Sep-21 11:15 236 14 gusting 35 21.1
2018-Sep-21 11:01 238 19 gusting 37 22.2
2018-Sep-21 10:45 236 19 gusting 31 22.8
2018-Sep-21 10:30 227 16 gusting 25 22.2
2018-Sep-21 10:15 190 14 gusting 26 22.2
2018-Sep-21 10:00 211 19 gusting 26 22.2
2018-Sep-21 09:45 195 18 gusting 29 22.2
2018-Sep-21 09:30 193 18 gusting 31 22.2
2018-Sep-21 09:15 198 16 gusting 26 21.7
2018-Sep-21 09:00 188 16 gusting 28 21.7
2018-Sep-21 08:45 194 13 gusting 22 21.1
2018-Sep-21 08:31 142 13 gusting 24 21.1
2018-Sep-21 08:16 213 7 gusting 19 21.1
2018-Sep-21 08:01 142 9 gusting 18 20.6
2018-Sep-21 07:45 150 6 gusting 18 20.6
2018-Sep-21 07:30 132 8 gusting 16 20.0
2018-Sep-21 07:16 193 7 gusting 18 19.4
2018-Sep-21 07:01 207 6 gusting 17 19.4
2018-Sep-21 06:45 148 9 gusting 15 18.9
2018-Sep-21 06:30 125 8 gusting 17 19.4
2018-Sep-21 06:15 161 6 gusting 13 18.9
2018-Sep-21 06:00
2018-Sep-21 05:45
2018-Sep-21 05:30
2018-Sep-21 05:15
2018-Sep-21 05:00
2018-Sep-21 04:46
2018-Sep-21 04:32
2018-Sep-21 04:16 163 3 gusting 13 18.3
2018-Sep-21 04:00 157 4 gusting 13 18.3
2018-Sep-21 03:45 142 6 gusting 11 18.3
2018-Sep-21 03:31 204 6 gusting 13 18.3
2018-Sep-21 03:15 148 6 gusting 12 18.3
2018-Sep-21 03:00 144 6 gusting 13 18.3
2018-Sep-21 02:45 144 6 gusting 11 18.3
2018-Sep-21 02:30 136 6 gusting 13 18.3
2018-Sep-21 02:15 149 5 gusting 10 17.8
2018-Sep-21 02:00 131 5 gusting 10 17.8
2018-Sep-21 01:45 129 5 gusting 9 17.8
2018-Sep-21 01:30 147 3 gusting 10 17.8
2018-Sep-21 01:15 144 4 gusting 10 17.8
2018-Sep-21 01:00 165 1 gusting 8 17.8
2018-Sep-21 00:45 171 1 gusting 9 17.8
2018-Sep-21 00:30 142 4 gusting 9 17.8
2018-Sep-21 00:15 134 5 gusting 10 17.8
2018-Sep-21 00:00 132 5 gusting 9 17.8
2018-Sep-20 23:45 123 4 gusting 8 17.8
2018-Sep-20 23:30 132 4 gusting 9 17.8
2018-Sep-20 23:15 142 2 gusting 10 17.8
2018-Sep-20 23:01 140 5 gusting 8 17.8
2018-Sep-20 22:46 136 2 gusting 7 17.8
2018-Sep-20 22:31 129 0 gusting 6 17.8
2018-Sep-20 22:16 134 4 gusting 7 17.2
2018-Sep-20 22:01 136 1 gusting 7 17.2
2018-Sep-20 21:45 139 3 gusting 6 17.2
2018-Sep-20 21:30 126 1 gusting 5 17.2
2018-Sep-20 21:15 142 1 gusting 5 17.8
2018-Sep-20 21:00 181 1 gusting 4 18.3
2018-Sep-20 20:45 215 18.3
2018-Sep-20 20:30 215 3 gusting 5 18.9
2018-Sep-20 20:15 215 1 gusting 4 18.9
2018-Sep-20 20:01 213 18.9
2018-Sep-20 19:46 224 0 gusting 5 18.9
2018-Sep-20 19:30 223 0 gusting 5 18.9
2018-Sep-20 19:16 223 0 gusting 5 18.9
2018-Sep-20 19:00 223 1 gusting 5 18.9
2018-Sep-20 18:45 223 1 gusting 6 19.4
2018-Sep-20 18:30 206 1 gusting 6 19.4
2018-Sep-20 18:16 197 0 gusting 6 19.4
2018-Sep-20 18:00 196 1 gusting 6 19.4
2018-Sep-20 17:46 129 3 gusting 6 19.4
2018-Sep-20 17:30 139 19.4
2018-Sep-20 17:15 219 19.4
2018-Sep-20 17:00 219 19.4
2018-Sep-20 16:45 219 19.4
2018-Sep-20 16:31 240 20.0
2018-Sep-20 16:15 225 20.0
2018-Sep-20 16:00 260 20.6
2018-Sep-20 15:45 260 1 gusting 7 20.6
2018-Sep-20 15:30 249 4 gusting 8 20.6
2018-Sep-20 15:15 270 4 gusting 10 21.1
2018-Sep-20 15:00 260 4 gusting 9 21.1
2018-Sep-20 14:45 242 6 gusting 13 21.1
2018-Sep-20 14:30 245 6 gusting 13 21.1
2018-Sep-20 14:15 265 4 gusting 10 20.6
2018-Sep-20 14:00 260 6 gusting 11 20.6
2018-Sep-20 13:45 233 6 gusting 15 20.6
2018-Sep-20 13:30 247 8 gusting 15 20.6
2018-Sep-20 13:00 255 6 gusting 13 21.1
2018-Sep-20 12:45 245 6 gusting 13 20.6
2018-Sep-20 12:30 240 6 gusting 11 20.6
2018-Sep-20 12:15 265 4 gusting 10 20.6
2018-Sep-20 12:00 255 6 gusting 11 20.6
2018-Sep-20 11:45 250 5 gusting 9 20.6
2018-Sep-20 11:31 251 5 gusting 13 20.0
2018-Sep-20 11:15 244 4 gusting 16 20.0
2018-Sep-20 11:02 227 6 gusting 15 20.0
2018-Sep-20 10:46 226 8 gusting 16 19.4
2018-Sep-20 10:31 223 8 gusting 16 19.4
2018-Sep-20 10:16 202 6 gusting 13 20.0
2018-Sep-20 10:01 248 5 gusting 15 20.0
2018-Sep-20 09:45
2018-Sep-20 09:30
2018-Sep-20 09:15
2018-Sep-20 09:00
2018-Sep-20 08:45
2018-Sep-20 08:30
2018-Sep-20 08:15
2018-Sep-20 08:00
2018-Sep-20 07:45
2018-Sep-20 07:30
2018-Sep-20 07:15
2018-Sep-20 07:02
2018-Sep-20 06:46
2018-Sep-20 06:32
2018-Sep-20 06:15
2018-Sep-20 06:00
2018-Sep-20 05:45
2018-Sep-20 05:30
2018-Sep-20 05:15
2018-Sep-20 05:00
2018-Sep-20 04:45
2018-Sep-20 04:30 248 6 gusting 13 17.8
2018-Sep-20 04:17 233 6 gusting 13 17.8
2018-Sep-20 04:02 229 5 gusting 11 17.8
2018-Sep-20 03:46 249 5 gusting 11 18.3
2018-Sep-20 03:31 239 6 gusting 12 18.3
2018-Sep-20 03:16 242 6 gusting 13 18.3
2018-Sep-20 03:02 239 5 gusting 11 18.3
2018-Sep-20 02:46 241 5 gusting 11 18.3
2018-Sep-20 02:31 255 6 gusting 9 18.3
2018-Sep-20 02:15 240 6 gusting 10 18.3
2018-Sep-20 02:01 255 6 gusting 15 18.3
2018-Sep-20 01:46 260 5 gusting 11 18.3
2018-Sep-20 01:30 250 6 gusting 11 18.3
2018-Sep-20 01:15 247 7 gusting 13 18.3
2018-Sep-20 01:01 246 8 gusting 16 18.3